sensor_id;sensor_type;location;lat;lon;timestamp;pressure;altitude;pressure_sealevel;temperature;humidity
22020;BME280;51298;53.362;-1.518;2023-07-20T00:00:35;99359.28;;;12.18;100.00
22020;BME280;51298;53.362;-1.518;2023-07-20T00:03:20;99364.69;;;12.15;100.00
22020;BME280;51298;53.362;-1.518;2023-07-20T00:06:07;99364.81;;;12.12;100.00
22020;BME280;51298;53.362;-1.518;2023-07-20T00:08:51;99369.97;;;12.15;100.00
22020;BME280;51298;53.362;-1.518;2023-07-20T00:11:37;99363.78;;;12.16;100.00
22020;BME280;51298;53.362;-1.518;2023-07-20T00:14:22;99365.50;;;12.17;100.00
22020;BME280;51298;53.362;-1.518;2023-07-20T00:17:06;99362.97;;;12.14;100.00
22020;BME280;51298;53.362;-1.518;2023-07-20T00:19:51;99361.41;;;12.09;100.00
22020;BME280;51298;53.362;-1.518;2023-07-20T00:22:35;99363.94;;;12.12;100.00
22020;BME280;51298;53.362;-1.518;2023-07-20T00:25:19;99367.16;;;12.20;100.00
22020;BME280;51298;53.362;-1.518;2023-07-20T00:28:04;99372.63;;;12.15;100.00
22020;BME280;51298;53.362;-1.518;2023-07-20T00:30:51;99378.19;;;12.08;100.00
22020;BME280;51298;53.362;-1.518;2023-07-20T00:33:35;99371.31;;;12.04;100.00
22020;BME280;51298;53.362;-1.518;2023-07-20T00:36:20;99363.56;;;11.99;100.00
22020;BME280;51298;53.362;-1.518;2023-07-20T00:39:03;99373.22;;;12.00;100.00
22020;BME280;51298;53.362;-1.518;2023-07-20T00:41:51;99364.38;;;12.01;100.00
22020;BME280;51298;53.362;-1.518;2023-07-20T00:44:35;99360.72;;;12.04;100.00
22020;BME280;51298;53.362;-1.518;2023-07-20T00:47:20;99361.16;;;11.93;100.00
22020;BME280;51298;53.362;-1.518;2023-07-20T00:50:05;99362.69;;;11.99;100.00
22020;BME280;51298;53.362;-1.518;2023-07-20T00:52:49;99356.91;;;11.89;100.00
22020;BME280;51298;53.362;-1.518;2023-07-20T00:55:36;99354.25;;;11.89;100.00
22020;BME280;51298;53.362;-1.518;2023-07-20T00:58:21;99355.88;;;11.93;100.00
22020;BME280;51298;53.362;-1.518;2023-07-20T01:01:12;99354.19;;;11.91;100.00
22020;BME280;51298;53.362;-1.518;2023-07-20T01:03:56;99355.38;;;11.82;100.00
22020;BME280;51298;53.362;-1.518;2023-07-20T01:13:01;99347.22;;;11.65;100.00
22020;BME280;51298;53.362;-1.518;2023-07-20T01:15:49;99341.00;;;11.66;100.00
22020;BME280;51298;53.362;-1.518;2023-07-20T01:19:26;99342.72;;;11.67;100.00
22020;BME280;51298;53.362;-1.518;2023-07-20T01:29:12;99336.09;;;11.55;100.00
22020;BME280;51298;53.362;-1.518;2023-07-20T01:32:02;99336.97;;;11.56;100.00
22020;BME280;51298;53.362;-1.518;2023-07-20T01:34:52;99333.50;;;11.53;100.00
22020;BME280;51298;53.362;-1.518;2023-07-20T01:37:39;99332.69;;;11.51;100.00
22020;BME280;51298;53.362;-1.518;2023-07-20T01:40:25;99330.00;;;11.53;100.00
22020;BME280;51298;53.362;-1.518;2023-07-20T01:43:11;99330.81;;;11.55;100.00
22020;BME280;51298;53.362;-1.518;2023-07-20T01:45:56;99327.56;;;11.48;100.00
22020;BME280;51298;53.362;-1.518;2023-07-20T01:48:41;99331.84;;;11.51;100.00
22020;BME280;51298;53.362;-1.518;2023-07-20T01:51:26;99328.34;;;11.50;100.00
22020;BME280;51298;53.362;-1.518;2023-07-20T01:54:10;99330.00;;;11.53;100.00
22020;BME280;51298;53.362;-1.518;2023-07-20T01:56:55;99324.91;;;11.48;100.00
22020;BME280;51298;53.362;-1.518;2023-07-20T01:59:40;99327.47;;;11.50;100.00
22020;BME280;51298;53.362;-1.518;2023-07-20T02:02:26;99324.72;;;11.53;100.00
22020;BME280;51298;53.362;-1.518;2023-07-20T02:05:12;99318.56;;;11.52;100.00
22020;BME280;51298;53.362;-1.518;2023-07-20T02:07:56;99314.00;;;11.58;100.00
22020;BME280;51298;53.362;-1.518;2023-07-20T02:10:40;99318.25;;;11.62;100.00
22020;BME280;51298;53.362;-1.518;2023-07-20T02:13:25;99315.19;;;11.49;100.00
22020;BME280;51298;53.362;-1.518;2023-07-20T02:16:08;99318.53;;;11.54;100.00
22020;BME280;51298;53.362;-1.518;2023-07-20T02:18:53;99312.47;;;11.50;100.00
22020;BME280;51298;53.362;-1.518;2023-07-20T02:21:37;99320.66;;;11.44;100.00
22020;BME280;51298;53.362;-1.518;2023-07-20T02:24:22;99309.19;;;11.45;100.00
22020;BME280;51298;53.362;-1.518;2023-07-20T02:27:06;99308.19;;;11.48;100.00
22020;BME280;51298;53.362;-1.518;2023-07-20T02:29:51;99306.63;;;11.42;100.00
22020;BME280;51298;53.362;-1.518;2023-07-20T02:32:36;99301.91;;;11.50;100.00
22020;BME280;51298;53.362;-1.518;2023-07-20T02:35:20;99313.00;;;11.37;100.00
22020;BME280;51298;53.362;-1.518;2023-07-20T02:38:04;99308.81;;;11.31;100.00
22020;BME280;51298;53.362;-1.518;2023-07-20T02:40:51;99302.59;;;11.32;100.00
22020;BME280;51298;53.362;-1.518;2023-07-20T02:43:35;99305.50;;;11.25;100.00
22020;BME280;51298;53.362;-1.518;2023-07-20T02:46:20;99307.22;;;11.26;100.00
22020;BME280;51298;53.362;-1.518;2023-07-20T02:49:04;99308.44;;;11.17;100.00
22020;BME280;51298;53.362;-1.518;2023-07-20T02:51:51;99310.78;;;11.25;100.00
22020;BME280;51298;53.362;-1.518;2023-07-20T02:54:35;99305.44;;;11.26;100.00
22020;BME280;51298;53.362;-1.518;2023-07-20T02:57:20;99306.06;;;11.34;100.00
22020;BME280;51298;53.362;-1.518;2023-07-20T03:00:04;99301.41;;;11.41;100.00
22020;BME280;51298;53.362;-1.518;2023-07-20T03:02:50;99304.06;;;11.41;100.00
22020;BME280;51298;53.362;-1.518;2023-07-20T03:05:37;99309.28;;;11.42;100.00
22020;BME280;51298;53.362;-1.518;2023-07-20T03:08:24;99300.31;;;11.46;100.00
22020;BME280;51298;53.362;-1.518;2023-07-20T03:11:08;99301.47;;;11.39;100.00
22020;BME280;51298;53.362;-1.518;2023-07-20T03:13:52;99307.44;;;11.44;100.00
22020;BME280;51298;53.362;-1.518;2023-07-20T03:16:36;99307.84;;;11.57;100.00
22020;BME280;51298;53.362;-1.518;2023-07-20T03:19:21;99306.88;;;11.60;100.00
22020;BME280;51298;53.362;-1.518;2023-07-20T03:22:05;99304.91;;;11.65;100.00
22020;BME280;51298;53.362;-1.518;2023-07-20T03:24:50;99305.78;;;11.65;100.00
22020;BME280;51298;53.362;-1.518;2023-07-20T03:27:35;99305.78;;;11.65;100.00
22020;BME280;51298;53.362;-1.518;2023-07-20T03:30:19;99309.34;;;11.64;100.00
22020;BME280;51298;53.362;-1.518;2023-07-20T03:33:04;99309.06;;;11.72;100.00
22020;BME280;51298;53.362;-1.518;2023-07-20T03:35:49;99302.97;;;11.70;100.00
22020;BME280;51298;53.362;-1.518;2023-07-20T03:38:33;99309.91;;;11.72;100.00
22020;BME280;51298;53.362;-1.518;2023-07-20T03:41:18;99309.53;;;11.83;100.00
22020;BME280;51298;53.362;-1.518;2023-07-20T03:44:03;99308.44;;;11.89;100.00
22020;BME280;51298;53.362;-1.518;2023-07-20T03:46:51;99313.13;;;12.04;100.00
22020;BME280;51298;53.362;-1.518;2023-07-20T03:49:35;99314.72;;;12.08;100.00
22020;BME280;51298;53.362;-1.518;2023-07-20T03:52:19;99303.72;;;12.18;100.00
22020;BME280;51298;53.362;-1.518;2023-07-20T03:55:04;99294.94;;;12.18;100.00
22020;BME280;51298;53.362;-1.518;2023-07-20T03:57:49;99295.78;;;12.18;100.00
22020;BME280;51298;53.362;-1.518;2023-07-20T04:00:34;99298.25;;;12.23;100.00
22020;BME280;51298;53.362;-1.518;2023-07-20T04:03:20;99291.94;;;12.27;100.00
22020;BME280;51298;53.362;-1.518;2023-07-20T04:06:04;99297.28;;;12.26;100.00
22020;BME280;51298;53.362;-1.518;2023-07-20T04:08:49;99289.16;;;12.30;100.00
22020;BME280;51298;53.362;-1.518;2023-07-20T04:11:33;99297.97;;;12.31;100.00
22020;BME280;51298;53.362;-1.518;2023-07-20T04:14:17;99296.47;;;12.24;100.00
22020;BME280;51298;53.362;-1.518;2023-07-20T04:17:01;99302.31;;;12.32;100.00
22020;BME280;51298;53.362;-1.518;2023-07-20T04:19:45;99300.34;;;12.37;100.00
22020;BME280;51298;53.362;-1.518;2023-07-20T04:22:30;99295.78;;;12.40;100.00
22020;BME280;51298;53.362;-1.518;2023-07-20T04:25:14;99297.38;;;12.44;100.00
22020;BME280;51298;53.362;-1.518;2023-07-20T04:27:59;99289.50;;;12.43;100.00
22020;BME280;51298;53.362;-1.518;2023-07-20T04:30:43;99289.75;;;12.37;100.00
22020;BME280;51298;53.362;-1.518;2023-07-20T04:33:28;99284.22;;;12.43;100.00
22020;BME280;51298;53.362;-1.518;2023-07-20T04:36:13;99288.66;;;12.42;100.00
22020;BME280;51298;53.362;-1.518;2023-07-20T04:39:00;99282.31;;;12.46;100.00
22020;BME280;51298;53.362;-1.518;2023-07-20T04:41:51;99285.06;;;12.43;100.00
22020;BME280;51298;53.362;-1.518;2023-07-20T04:44:36;99287.47;;;12.49;100.00
22020;BME280;51298;53.362;-1.518;2023-07-20T04:47:20;99279.66;;;12.46;100.00
22020;BME280;51298;53.362;-1.518;2023-07-20T04:50:07;99275.84;;;12.53;100.00
22020;BME280;51298;53.362;-1.518;2023-07-20T04:52:54;99272.34;;;12.53;100.00
22020;BME280;51298;53.362;-1.518;2023-07-20T04:55:40;99273.00;;;12.58;100.00
22020;BME280;51298;53.362;-1.518;2023-07-20T04:58:27;99270.22;;;12.61;100.00
22020;BME280;51298;53.362;-1.518;2023-07-20T05:01:13;99272.06;;;12.59;100.00
22020;BME280;51298;53.362;-1.518;2023-07-20T05:03:57;99267.63;;;12.60;100.00
22020;BME280;51298;53.362;-1.518;2023-07-20T05:06:42;99277.16;;;12.64;100.00
22020;BME280;51298;53.362;-1.518;2023-07-20T05:09:26;99281.34;;;12.69;100.00
22020;BME280;51298;53.362;-1.518;2023-07-20T05:12:10;99278.03;;;12.64;100.00
22020;BME280;51298;53.362;-1.518;2023-07-20T05:14:57;99285.72;;;12.70;100.00
22020;BME280;51298;53.362;-1.518;2023-07-20T05:17:41;99280.22;;;12.75;100.00
22020;BME280;51298;53.362;-1.518;2023-07-20T05:20:25;99288.78;;;12.81;100.00
22020;BME280;51298;53.362;-1.518;2023-07-20T05:23:10;99279.03;;;12.82;100.00
22020;BME280;51298;53.362;-1.518;2023-07-20T05:25:56;99278.63;;;12.91;100.00
22020;BME280;51298;53.362;-1.518;2023-07-20T05:28:40;99282.28;;;12.88;100.00
22020;BME280;51298;53.362;-1.518;2023-07-20T05:31:24;99283.53;;;13.00;100.00
22020;BME280;51298;53.362;-1.518;2023-07-20T05:34:10;99287.47;;;13.12;100.00
22020;BME280;51298;53.362;-1.518;2023-07-20T05:36:55;99282.16;;;13.12;100.00
22020;BME280;51298;53.362;-1.518;2023-07-20T05:39:39;99289.72;;;13.21;100.00
22020;BME280;51298;53.362;-1.518;2023-07-20T05:42:23;99278.97;;;13.24;100.00
22020;BME280;51298;53.362;-1.518;2023-07-20T05:45:08;99278.56;;;13.33;100.00
22020;BME280;51298;53.362;-1.518;2023-07-20T05:47:53;99291.84;;;13.33;100.00
22020;BME280;51298;53.362;-1.518;2023-07-20T05:50:41;99288.97;;;13.38;100.00
22020;BME280;51298;53.362;-1.518;2023-07-20T05:53:26;99291.91;;;13.50;100.00
22020;BME280;51298;53.362;-1.518;2023-07-20T05:56:14;99292.16;;;13.65;100.00
22020;BME280;51298;53.362;-1.518;2023-07-20T05:58:58;99286.28;;;13.58;100.00
22020;BME280;51298;53.362;-1.518;2023-07-20T06:01:43;99295.94;;;13.78;100.00
22020;BME280;51298;53.362;-1.518;2023-07-20T06:04:28;99294.16;;;13.78;100.00
22020;BME280;51298;53.362;-1.518;2023-07-20T06:07:15;99293.16;;;13.81;100.00
22020;BME280;51298;53.362;-1.518;2023-07-20T06:09:59;99293.81;;;13.86;100.00
22020;BME280;51298;53.362;-1.518;2023-07-20T06:12:44;99286.56;;;13.89;100.00
22020;BME280;51298;53.362;-1.518;2023-07-20T06:15:32;99292.28;;;13.99;100.00
22020;BME280;51298;53.362;-1.518;2023-07-20T06:18:22;99279.38;;;14.10;100.00
22020;BME280;51298;53.362;-1.518;2023-07-20T06:21:09;99284.03;;;14.05;100.00
22020;BME280;51298;53.362;-1.518;2023-07-20T06:23:54;99287.06;;;14.16;100.00
22020;BME280;51298;53.362;-1.518;2023-07-20T06:26:41;99282.03;;;14.10;100.00
22020;BME280;51298;53.362;-1.518;2023-07-20T06:29:27;99292.34;;;13.98;100.00
22020;BME280;51298;53.362;-1.518;2023-07-20T06:32:12;99290.41;;;14.01;100.00
22020;BME280;51298;53.362;-1.518;2023-07-20T06:35:00;99285.69;;;14.08;100.00
22020;BME280;51298;53.362;-1.518;2023-07-20T06:37:44;99290.44;;;13.82;100.00
22020;BME280;51298;53.362;-1.518;2023-07-20T06:40:30;99281.34;;;13.88;100.00
22020;BME280;51298;53.362;-1.518;2023-07-20T06:43:14;99286.72;;;13.86;100.00
22020;BME280;51298;53.362;-1.518;2023-07-20T06:45:59;99291.94;;;13.88;100.00
22020;BME280;51298;53.362;-1.518;2023-07-20T06:48:46;99286.22;;;13.78;100.00
22020;BME280;51298;53.362;-1.518;2023-07-20T06:51:30;99292.38;;;13.79;100.00
22020;BME280;51298;53.362;-1.518;2023-07-20T06:54:14;99288.72;;;13.81;100.00
22020;BME280;51298;53.362;-1.518;2023-07-20T06:57:00;99289.72;;;13.79;100.00
22020;BME280;51298;53.362;-1.518;2023-07-20T06:59:44;99296.19;;;13.92;100.00
22020;BME280;51298;53.362;-1.518;2023-07-20T07:02:28;99291.34;;;14.00;100.00
22020;BME280;51298;53.362;-1.518;2023-07-20T07:05:13;99301.47;;;14.11;100.00
22020;BME280;51298;53.362;-1.518;2023-07-20T07:07:59;99297.38;;;14.04;100.00
22020;BME280;51298;53.362;-1.518;2023-07-20T07:10:43;99289.84;;;14.13;100.00
22020;BME280;51298;53.362;-1.518;2023-07-20T07:13:27;99291.97;;;14.24;100.00
22020;BME280;51298;53.362;-1.518;2023-07-20T07:16:12;99280.06;;;14.33;100.00
22020;BME280;51298;53.362;-1.518;2023-07-20T07:18:56;99285.72;;;14.25;100.00
22020;BME280;51298;53.362;-1.518;2023-07-20T07:21:40;99286.91;;;14.19;100.00
22020;BME280;51298;53.362;-1.518;2023-07-20T07:24:25;99288.09;;;14.31;100.00
22020;BME280;51298;53.362;-1.518;2023-07-20T07:27:13;99286.78;;;14.40;100.00
22020;BME280;51298;53.362;-1.518;2023-07-20T07:30:00;99278.25;;;14.33;100.00
22020;BME280;51298;53.362;-1.518;2023-07-20T07:32:44;99282.41;;;14.21;100.00
22020;BME280;51298;53.362;-1.518;2023-07-20T07:35:28;99284.66;;;14.29;100.00
22020;BME280;51298;53.362;-1.518;2023-07-20T07:38:13;99283.00;;;14.27;100.00
22020;BME280;51298;53.362;-1.518;2023-07-20T07:40:57;99287.16;;;14.32;100.00
22020;BME280;51298;53.362;-1.518;2023-07-20T07:43:42;99289.88;;;14.31;100.00
22020;BME280;51298;53.362;-1.518;2023-07-20T07:46:26;99294.25;;;14.32;100.00
22020;BME280;51298;53.362;-1.518;2023-07-20T07:49:10;99291.81;;;14.27;100.00
22020;BME280;51298;53.362;-1.518;2023-07-20T07:51:54;99288.31;;;14.27;100.00
22020;BME280;51298;53.362;-1.518;2023-07-20T07:54:39;99290.56;;;14.53;100.00
22020;BME280;51298;53.362;-1.518;2023-07-20T07:57:23;99291.91;;;14.62;100.00
22020;BME280;51298;53.362;-1.518;2023-07-20T08:00:08;99288.75;;;14.72;100.00
22020;BME280;51298;53.362;-1.518;2023-07-20T08:02:55;99292.41;;;14.87;100.00
22020;BME280;51298;53.362;-1.518;2023-07-20T08:05:39;99294.44;;;14.65;100.00
22020;BME280;51298;53.362;-1.518;2023-07-20T08:08:24;99292.78;;;14.79;100.00
22020;BME280;51298;53.362;-1.518;2023-07-20T08:11:09;99294.19;;;14.86;100.00
22020;BME280;51298;53.362;-1.518;2023-07-20T08:13:53;99297.63;;;14.88;100.00
22020;BME280;51298;53.362;-1.518;2023-07-20T08:16:37;99303.56;;;15.11;100.00
22020;BME280;51298;53.362;-1.518;2023-07-20T08:19:22;99300.28;;;15.06;100.00
22020;BME280;51298;53.362;-1.518;2023-07-20T08:22:06;99302.00;;;15.07;100.00
22020;BME280;51298;53.362;-1.518;2023-07-20T08:24:50;99299.50;;;15.21;100.00
22020;BME280;51298;53.362;-1.518;2023-07-20T08:27:35;99298.53;;;15.39;100.00
22020;BME280;51298;53.362;-1.518;2023-07-20T08:30:21;99297.72;;;15.54;100.00
22020;BME280;51298;53.362;-1.518;2023-07-20T08:33:09;99300.78;;;15.47;100.00
22020;BME280;51298;53.362;-1.518;2023-07-20T08:35:53;99293.03;;;15.60;100.00
22020;BME280;51298;53.362;-1.518;2023-07-20T08:38:38;99290.03;;;15.66;100.00
22020;BME280;51298;53.362;-1.518;2023-07-20T08:41:22;99295.28;;;15.67;100.00
22020;BME280;51298;53.362;-1.518;2023-07-20T08:44:06;99297.28;;;15.79;100.00
22020;BME280;51298;53.362;-1.518;2023-07-20T08:46:51;99301.75;;;15.95;100.00
22020;BME280;51298;53.362;-1.518;2023-07-20T08:49:38;99303.22;;;16.00;100.00
22020;BME280;51298;53.362;-1.518;2023-07-20T08:52:23;99305.88;;;16.16;100.00
22020;BME280;51298;53.362;-1.518;2023-07-20T08:55:08;99313.09;;;16.30;100.00
22020;BME280;51298;53.362;-1.518;2023-07-20T08:57:56;99316.38;;;16.35;100.00
22020;BME280;51298;53.362;-1.518;2023-07-20T09:00:41;99317.31;;;16.65;100.00
22020;BME280;51298;53.362;-1.518;2023-07-20T09:03:26;99308.09;;;16.55;100.00
22020;BME280;51298;53.362;-1.518;2023-07-20T09:06:10;99310.16;;;16.50;100.00
22020;BME280;51298;53.362;-1.518;2023-07-20T09:08:55;99312.78;;;16.81;100.00
22020;BME280;51298;53.362;-1.518;2023-07-20T09:11:40;99310.63;;;17.18;100.00
22020;BME280;51298;53.362;-1.518;2023-07-20T09:14:24;99303.78;;;17.56;100.00
22020;BME280;51298;53.362;-1.518;2023-07-20T09:17:13;99303.31;;;17.50;100.00
22020;BME280;51298;53.362;-1.518;2023-07-20T09:19:58;99304.69;;;17.13;100.00
22020;BME280;51298;53.362;-1.518;2023-07-20T09:22:42;99302.31;;;16.63;100.00
22020;BME280;51298;53.362;-1.518;2023-07-20T09:25:27;99299.28;;;16.39;100.00
22020;BME280;51298;53.362;-1.518;2023-07-20T09:28:12;99302.84;;;16.53;100.00
22020;BME280;51298;53.362;-1.518;2023-07-20T09:30:56;99305.63;;;16.20;100.00
22020;BME280;51298;53.362;-1.518;2023-07-20T09:33:41;99296.44;;;16.26;100.00
22020;BME280;51298;53.362;-1.518;2023-07-20T09:36:27;99296.34;;;15.96;100.00
22020;BME280;51298;53.362;-1.518;2023-07-20T09:39:11;99306.66;;;16.02;100.00
22020;BME280;51298;53.362;-1.518;2023-07-20T09:42:00;99309.66;;;15.80;100.00
22020;BME280;51298;53.362;-1.518;2023-07-20T09:44:45;99304.84;;;16.03;100.00
22020;BME280;51298;53.362;-1.518;2023-07-20T09:47:29;99312.59;;;16.07;100.00
22020;BME280;51298;53.362;-1.518;2023-07-20T09:50:14;99304.94;;;16.33;100.00
22020;BME280;51298;53.362;-1.518;2023-07-20T09:53:00;99305.94;;;16.46;100.00
22020;BME280;51298;53.362;-1.518;2023-07-20T09:55:48;99298.47;;;16.68;100.00
22020;BME280;51298;53.362;-1.518;2023-07-20T09:58:33;99307.59;;;16.64;100.00
22020;BME280;51298;53.362;-1.518;2023-07-20T10:01:20;99299.31;;;16.99;100.00
22020;BME280;51298;53.362;-1.518;2023-07-20T10:04:07;99301.31;;;16.95;100.00
22020;BME280;51298;53.362;-1.518;2023-07-20T10:06:54;99294.38;;;17.07;100.00
22020;BME280;51298;53.362;-1.518;2023-07-20T10:09:40;99300.91;;;16.87;100.00
22020;BME280;51298;53.362;-1.518;2023-07-20T10:12:27;99296.25;;;16.90;100.00
22020;BME280;51298;53.362;-1.518;2023-07-20T10:18:04;99296.28;;;17.05;100.00
22020;BME280;51298;53.362;-1.518;2023-07-20T10:20:51;99283.88;;;16.89;100.00
22020;BME280;51298;53.362;-1.518;2023-07-20T10:23:35;99292.69;;;16.76;100.00
22020;BME280;51298;53.362;-1.518;2023-07-20T10:26:20;99285.44;;;17.08;100.00
22020;BME280;51298;53.362;-1.518;2023-07-20T10:29:04;99290.38;;;17.00;100.00
22020;BME280;51298;53.362;-1.518;2023-07-20T10:31:49;99285.00;;;17.30;100.00
22020;BME280;51298;53.362;-1.518;2023-07-20T10:34:34;99284.63;;;17.36;100.00
22020;BME280;51298;53.362;-1.518;2023-07-20T10:37:52;99283.44;;;17.70;100.00
22020;BME280;51298;53.362;-1.518;2023-07-20T10:40:40;99288.75;;;17.70;100.00
22020;BME280;51298;53.362;-1.518;2023-07-20T10:43:24;99276.91;;;18.02;100.00
22020;BME280;51298;53.362;-1.518;2023-07-20T10:46:11;99279.53;;;17.75;100.00
22020;BME280;51298;53.362;-1.518;2023-07-20T10:49:00;99283.41;;;17.98;100.00
22020;BME280;51298;53.362;-1.518;2023-07-20T10:51:55;99277.78;;;18.30;100.00
22020;BME280;51298;53.362;-1.518;2023-07-20T10:54:47;99280.00;;;18.50;100.00
22020;BME280;51298;53.362;-1.518;2023-07-20T10:57:33;99274.88;;;18.47;100.00
22020;BME280;51298;53.362;-1.518;2023-07-20T11:00:22;99273.00;;;17.93;100.00
22020;BME280;51298;53.362;-1.518;2023-07-20T11:03:08;99275.63;;;18.08;100.00
22020;BME280;51298;53.362;-1.518;2023-07-20T11:05:52;99275.16;;;18.15;100.00
22020;BME280;51298;53.362;-1.518;2023-07-20T11:08:43;99268.28;;;18.11;100.00
22020;BME280;51298;53.362;-1.518;2023-07-20T11:11:30;99259.41;;;18.11;100.00
22020;BME280;51298;53.362;-1.518;2023-07-20T11:14:24;99258.84;;;18.47;100.00
22020;BME280;51298;53.362;-1.518;2023-07-20T11:17:14;99252.91;;;18.29;100.00
22020;BME280;51298;53.362;-1.518;2023-07-20T11:20:00;99253.13;;;18.12;100.00
22020;BME280;51298;53.362;-1.518;2023-07-20T11:22:46;99254.91;;;17.56;100.00
22020;BME280;51298;53.362;-1.518;2023-07-20T11:25:38;99251.09;;;17.46;100.00
22020;BME280;51298;53.362;-1.518;2023-07-20T11:28:23;99241.66;;;17.26;100.00
22020;BME280;51298;53.362;-1.518;2023-07-20T11:31:07;99244.22;;;17.56;100.00
22020;BME280;51298;53.362;-1.518;2023-07-20T11:33:51;99244.69;;;17.91;100.00
22020;BME280;51298;53.362;-1.518;2023-07-20T11:36:35;99245.63;;;18.04;100.00
22020;BME280;51298;53.362;-1.518;2023-07-20T11:39:21;99253.94;;;17.85;100.00
22020;BME280;51298;53.362;-1.518;2023-07-20T11:42:06;99249.41;;;18.41;100.00
22020;BME280;51298;53.362;-1.518;2023-07-20T11:44:53;99233.47;;;18.40;100.00
22020;BME280;51298;53.362;-1.518;2023-07-20T11:47:40;99245.50;;;18.33;100.00
22020;BME280;51298;53.362;-1.518;2023-07-20T11:50:26;99238.72;;;18.41;100.00
22020;BME280;51298;53.362;-1.518;2023-07-20T11:53:10;99241.13;;;19.49;100.00
22020;BME280;51298;53.362;-1.518;2023-07-20T11:55:54;99237.41;;;20.01;100.00
22020;BME280;51298;53.362;-1.518;2023-07-20T11:58:43;99235.47;;;19.53;100.00
22020;BME280;51298;53.362;-1.518;2023-07-20T12:01:29;99230.97;;;19.03;100.00
22020;BME280;51298;53.362;-1.518;2023-07-20T12:04:16;99236.09;;;19.32;100.00
22020;BME280;51298;53.362;-1.518;2023-07-20T12:07:00;99226.44;;;18.78;100.00
22020;BME280;51298;53.362;-1.518;2023-07-20T12:09:45;99220.28;;;19.54;100.00
22020;BME280;51298;53.362;-1.518;2023-07-20T12:12:47;99214.53;;;20.44;100.00
22020;BME280;51298;53.362;-1.518;2023-07-20T12:15:30;99216.28;;;20.91;100.00
22020;BME280;51298;53.362;-1.518;2023-07-20T12:18:15;99217.88;;;20.35;100.00
22020;BME280;51298;53.362;-1.518;2023-07-20T12:21:00;99214.78;;;20.76;99.83
22020;BME280;51298;53.362;-1.518;2023-07-20T12:23:45;99210.69;;;20.36;99.21
22020;BME280;51298;53.362;-1.518;2023-07-20T12:26:30;99217.03;;;19.98;100.00
22020;BME280;51298;53.362;-1.518;2023-07-20T12:29:15;99207.09;;;19.51;99.87
22020;BME280;51298;53.362;-1.518;2023-07-20T12:31:59;99209.34;;;19.57;99.10
22020;BME280;51298;53.362;-1.518;2023-07-20T12:34:43;99217.22;;;20.08;97.90
22020;BME280;51298;53.362;-1.518;2023-07-20T12:37:28;99216.47;;;20.18;100.00
22020;BME280;51298;53.362;-1.518;2023-07-20T12:40:12;99206.81;;;20.64;100.00
22020;BME280;51298;53.362;-1.518;2023-07-20T12:42:57;99209.09;;;20.09;100.00
22020;BME280;51298;53.362;-1.518;2023-07-20T12:45:42;99208.97;;;19.87;100.00
22020;BME280;51298;53.362;-1.518;2023-07-20T12:48:26;99197.84;;;20.04;98.57
22020;BME280;51298;53.362;-1.518;2023-07-20T12:51:11;99201.69;;;19.14;97.43
22020;BME280;51298;53.362;-1.518;2023-07-20T12:53:56;99189.75;;;18.68;100.00
22020;BME280;51298;53.362;-1.518;2023-07-20T12:56:40;99202.69;;;18.74;100.00
22020;BME280;51298;53.362;-1.518;2023-07-20T12:59:25;99204.63;;;19.60;100.00
22020;BME280;51298;53.362;-1.518;2023-07-20T13:02:09;99198.91;;;20.14;97.71
22020;BME280;51298;53.362;-1.518;2023-07-20T13:04:53;99190.41;;;20.20;96.11
22020;BME280;51298;53.362;-1.518;2023-07-20T13:07:39;99198.06;;;20.25;96.71
22020;BME280;51298;53.362;-1.518;2023-07-20T13:10:23;99194.69;;;20.23;93.89
22020;BME280;51298;53.362;-1.518;2023-07-20T13:13:07;99194.16;;;19.94;89.20
22020;BME280;51298;53.362;-1.518;2023-07-20T13:15:52;99189.66;;;19.20;92.20
22020;BME280;51298;53.362;-1.518;2023-07-20T13:18:37;99184.75;;;19.39;92.03
22020;BME280;51298;53.362;-1.518;2023-07-20T13:21:21;99184.88;;;19.74;97.10
22020;BME280;51298;53.362;-1.518;2023-07-20T13:24:06;99179.38;;;19.52;95.05
22020;BME280;51298;53.362;-1.518;2023-07-20T13:26:51;99180.22;;;19.65;90.93
22020;BME280;51298;53.362;-1.518;2023-07-20T13:29:35;99178.63;;;20.23;93.84
22020;BME280;51298;53.362;-1.518;2023-07-20T13:32:20;99177.16;;;20.30;89.21
22020;BME280;51298;53.362;-1.518;2023-07-20T13:35:04;99178.25;;;20.98;91.29
22020;BME280;51298;53.362;-1.518;2023-07-20T13:37:49;99174.06;;;20.71;88.46
22020;BME280;51298;53.362;-1.518;2023-07-20T13:40:33;99168.78;;;20.35;86.53
22020;BME280;51298;53.362;-1.518;2023-07-20T13:43:17;99164.97;;;21.07;86.17
22020;BME280;51298;53.362;-1.518;2023-07-20T13:46:01;99161.38;;;20.73;88.36
22020;BME280;51298;53.362;-1.518;2023-07-20T13:48:46;99164.88;;;20.51;87.67
22020;BME280;51298;53.362;-1.518;2023-07-20T13:51:30;99160.72;;;20.23;80.98
22020;BME280;51298;53.362;-1.518;2023-07-20T13:54:15;99160.72;;;20.23;85.14
22020;BME280;51298;53.362;-1.518;2023-07-20T13:57:00;99159.03;;;20.34;79.83
22020;BME280;51298;53.362;-1.518;2023-07-20T13:59:44;99160.84;;;20.57;88.13
22020;BME280;51298;53.362;-1.518;2023-07-20T14:02:29;99158.66;;;20.62;86.40
22020;BME280;51298;53.362;-1.518;2023-07-20T14:05:13;99160.69;;;19.76;85.14
22020;BME280;51298;53.362;-1.518;2023-07-20T14:07:59;99149.03;;;19.02;87.93
22020;BME280;51298;53.362;-1.518;2023-07-20T14:10:43;99149.03;;;18.89;86.46
22020;BME280;51298;53.362;-1.518;2023-07-20T14:13:27;99151.81;;;19.13;86.81
22020;BME280;51298;53.362;-1.518;2023-07-20T14:16:11;99143.97;;;19.85;85.89
22020;BME280;51298;53.362;-1.518;2023-07-20T14:18:56;99140.94;;;19.53;88.01
22020;BME280;51298;53.362;-1.518;2023-07-20T14:21:40;99140.66;;;19.32;85.47
22020;BME280;51298;53.362;-1.518;2023-07-20T14:24:24;99142.25;;;19.22;89.47
22020;BME280;51298;53.362;-1.518;2023-07-20T14:27:08;99146.16;;;19.05;91.10
22020;BME280;51298;53.362;-1.518;2023-07-20T14:29:52;99139.59;;;19.35;86.27